LFPM 181900Z AUTO 33010KT 9999 FEW033/// BKN042/// BKN110/// ///CB 22/18 Q1011

Les avions qui composent notre flotte

Avion Robin DR400-120

Avion école

F-BVMQ
   * tarif promotionnel appliqué pendant la formation des élèves non brevetés


F-BVMQ Planche